createdAt,value
2023-02-09T00:02:17.503Z,17.83
2023-02-09T00:04:44.141Z,13.88
2023-02-09T00:07:10.645Z,21.42
2023-02-09T00:09:37.279Z,17.77
2023-02-09T00:12:22.634Z,14.70
2023-02-09T00:14:49.150Z,19.85
2023-02-09T00:17:15.657Z,19.60
2023-02-09T00:19:42.490Z,17.23
2023-02-09T00:22:09.106Z,17.98
2023-02-09T00:24:36.503Z,21.05
2023-02-09T00:27:03.295Z,16.55
2023-02-09T00:29:31.326Z,19.38
2023-02-09T00:31:57.928Z,18.35
2023-02-09T00:34:46.020Z,17.95
2023-02-09T00:37:45.399Z,15.40
2023-02-09T00:40:13.150Z,16.73
2023-02-09T00:42:39.681Z,18.60
2023-02-09T00:45:06.740Z,18.27
2023-02-09T00:47:33.310Z,13.70
2023-02-09T00:49:59.895Z,15.68
2023-02-09T00:52:28.615Z,15.48
2023-02-09T00:54:55.130Z,21.05
2023-02-09T00:57:21.737Z,17.75
2023-02-09T00:59:48.236Z,19.30
2023-02-09T01:02:14.751Z,24.08
2023-02-09T01:04:41.334Z,18.02
2023-02-09T01:07:08.063Z,23.75
2023-02-09T01:09:35.470Z,22.15
2023-02-09T01:12:01.992Z,20.33
2023-02-09T01:14:28.767Z,21.70
2023-02-09T01:16:57.224Z,20.83
2023-02-09T01:19:26.771Z,22.00
2023-02-09T01:21:54.580Z,14.38
2023-02-09T01:24:21.128Z,22.13
2023-02-09T01:26:48.218Z,21.50
2023-02-09T01:29:17.307Z,21.30
2023-02-09T01:31:44.643Z,19.58
2023-02-09T01:34:13.406Z,21.05
2023-02-09T01:36:39.946Z,21.92
2023-02-09T01:39:06.448Z,21.17
2023-02-09T01:41:34.814Z,23.50
2023-02-09T01:44:04.553Z,22.58
2023-02-09T01:46:35.487Z,19.15
2023-02-09T01:51:33.444Z,22.35
2023-02-09T01:54:00.787Z,20.67
2023-02-09T01:56:29.872Z,23.20
2023-02-09T01:58:56.758Z,26.92
2023-02-09T02:01:23.971Z,20.83
2023-02-09T02:03:50.596Z,21.55
2023-02-09T02:06:18.303Z,18.70
2023-02-09T02:08:50.935Z,24.48
2023-02-09T02:11:17.894Z,21.35
2023-02-09T02:13:44.432Z,25.30
2023-02-09T02:16:32.204Z,21.92
2023-02-09T02:19:10.421Z,20.85
2023-02-09T02:22:15.466Z,25.92
2023-02-09T02:25:22.213Z,20.50
2023-02-09T02:27:58.379Z,19.88
2023-02-09T02:30:44.136Z,18.73
2023-02-09T02:33:37.126Z,22.55
2023-02-09T02:36:12.851Z,22.98
2023-02-09T02:39:01.143Z,20.48
2023-02-09T02:42:13.425Z,22.05
2023-02-09T02:44:42.556Z,24.60
2023-02-09T02:47:13.130Z,27.10
2023-02-09T02:49:49.325Z,29.17
2023-02-09T02:52:15.900Z,25.70
2023-02-09T02:54:50.062Z,19.40
2023-02-09T02:57:22.677Z,21.92
2023-02-09T02:59:57.134Z,27.50
2023-02-09T03:02:28.604Z,21.20
2023-02-09T03:04:56.857Z,24.52
2023-02-09T03:07:24.396Z,21.20
2023-02-09T03:09:52.235Z,25.15
2023-02-09T03:12:41.264Z,25.02
2023-02-09T03:15:33.771Z,27.40
2023-02-09T03:18:23.084Z,24.88
2023-02-09T03:21:11.523Z,22.92
2023-02-09T03:23:39.941Z,24.40
2023-02-09T03:26:10.056Z,25.25
2023-02-09T03:28:38.537Z,27.00
2023-02-09T03:31:05.311Z,24.83
2023-02-09T03:33:33.280Z,28.75
2023-02-09T03:36:01.745Z,26.65
2023-02-09T03:38:28.656Z,26.23
2023-02-09T03:40:55.356Z,33.00
2023-02-09T03:43:41.876Z,23.05
2023-02-09T03:46:09.749Z,22.88
2023-02-09T03:48:36.457Z,25.80
2023-02-09T03:51:03.126Z,22.15
2023-02-09T03:53:29.679Z,27.17
2023-02-09T03:55:56.177Z,23.63
2023-02-09T03:58:22.847Z,26.35
2023-02-09T04:00:49.329Z,20.00
2023-02-09T04:03:15.839Z,22.10
2023-02-09T04:05:42.320Z,23.70
2023-02-09T04:08:08.838Z,30.10
2023-02-09T04:10:35.314Z,27.27
2023-02-09T04:13:01.829Z,27.83
2023-02-09T04:15:28.433Z,24.80
2023-02-09T04:17:54.973Z,25.70
2023-02-09T04:20:21.490Z,24.77
2023-02-09T04:22:47.991Z,27.70
2023-02-09T04:25:14.528Z,25.17
2023-02-09T04:27:41.021Z,25.13
2023-02-09T04:30:08.336Z,26.58
2023-02-09T04:32:34.852Z,20.73
2023-02-09T04:35:01.571Z,22.98
2023-02-09T04:37:28.059Z,27.70
2023-02-09T04:39:54.887Z,23.60
2023-02-09T04:42:21.371Z,29.05
2023-02-09T04:44:47.849Z,25.98
2023-02-09T04:47:14.344Z,24.27
2023-02-09T04:49:42.515Z,24.65
2023-02-09T04:52:09.033Z,29.77
2023-02-09T04:54:35.523Z,30.38
2023-02-09T04:57:20.418Z,32.05
2023-02-09T04:59:46.988Z,27.83
2023-02-09T05:02:13.578Z,32.42
2023-02-09T05:04:40.063Z,26.88
2023-02-09T05:07:06.630Z,34.05
2023-02-09T05:09:33.397Z,27.52
2023-02-09T05:12:00.013Z,30.98
2023-02-09T05:14:27.237Z,30.48
2023-02-09T05:16:53.803Z,24.98
2023-02-09T05:19:20.356Z,29.98
2023-02-09T05:21:46.950Z,30.95
2023-02-09T05:24:13.503Z,29.77
2023-02-09T05:26:40.058Z,35.80
2023-02-09T05:29:06.623Z,29.98
2023-02-09T05:31:33.235Z,28.88
2023-02-09T05:34:00.994Z,30.20
2023-02-09T05:36:27.808Z,23.85
2023-02-09T05:38:54.341Z,26.77
2023-02-09T05:41:39.352Z,30.05
2023-02-09T05:44:05.897Z,31.05
2023-02-09T05:46:32.555Z,34.13
2023-02-09T05:48:59.036Z,28.58
2023-02-09T05:51:25.626Z,34.17
2023-02-09T05:53:56.192Z,32.17
2023-02-09T05:56:22.740Z,33.30
2023-02-09T05:58:49.259Z,33.83
2023-02-09T06:01:15.770Z,28.70
2023-02-09T06:03:42.456Z,32.20
2023-02-09T06:06:09.083Z,37.17
2023-02-09T06:08:35.616Z,30.50
2023-02-09T06:11:04.007Z,32.53
2023-02-09T06:13:30.798Z,33.28
2023-02-09T06:15:57.394Z,31.95
2023-02-09T06:18:23.922Z,45.33
2023-02-09T06:20:50.412Z,34.40
2023-02-09T06:23:16.913Z,32.35
2023-02-09T06:25:43.445Z,37.42
2023-02-09T06:28:10.011Z,34.53
2023-02-09T06:30:36.777Z,38.28
2023-02-09T06:33:03.281Z,42.25
2023-02-09T06:35:29.778Z,37.95
2023-02-09T06:37:58.601Z,41.92
2023-02-09T06:40:25.168Z,39.33
2023-02-09T06:42:51.658Z,42.72
2023-02-09T06:45:18.346Z,39.45
2023-02-09T06:47:45.923Z,35.42
2023-02-09T06:50:14.513Z,35.83
2023-02-09T06:52:41.056Z,43.63
2023-02-09T06:55:07.858Z,42.17
2023-02-09T06:57:37.170Z,35.53
2023-02-09T07:00:05.817Z,33.25
2023-02-09T07:02:32.379Z,39.10
2023-02-09T07:04:58.965Z,37.92
2023-02-09T07:07:25.621Z,43.20
2023-02-09T07:09:52.255Z,42.95
2023-02-09T07:12:18.730Z,38.30
2023-02-09T07:14:45.993Z,38.25
2023-02-09T07:17:12.607Z,39.20
2023-02-09T07:19:39.111Z,37.67
2023-02-09T07:22:05.738Z,37.05
2023-02-09T07:24:32.302Z,48.13
2023-02-09T07:26:59.473Z,32.22
2023-02-09T07:29:25.990Z,38.13
2023-02-09T07:31:52.631Z,35.58
2023-02-09T07:34:19.200Z,31.27
2023-02-09T07:36:47.734Z,40.90
2023-02-09T07:39:14.679Z,30.63
2023-02-09T07:41:41.687Z,34.72
2023-02-09T07:44:09.369Z,39.58
2023-02-09T07:46:36.299Z,35.08
2023-02-09T07:49:02.890Z,35.42
2023-02-09T07:51:29.613Z,33.63
2023-02-09T07:53:57.615Z,41.30
2023-02-09T07:56:24.497Z,35.80
2023-02-09T07:58:51.404Z,35.17
2023-02-09T08:01:18.631Z,35.55
2023-02-09T08:03:47.230Z,32.60
2023-02-09T08:06:20.224Z,31.67
2023-02-09T08:08:48.593Z,32.90
2023-02-09T08:11:17.775Z,33.50
2023-02-09T08:13:44.874Z,32.35
2023-02-09T08:16:14.215Z,36.60
2023-02-09T08:18:44.369Z,39.42
2023-02-09T08:21:12.986Z,37.00
2023-02-09T08:23:40.694Z,30.05
2023-02-09T08:26:10.089Z,33.83
2023-02-09T08:28:44.045Z,34.72
2023-02-09T08:31:13.215Z,33.05
2023-02-09T08:33:40.546Z,38.70
2023-02-09T08:36:07.600Z,39.10
2023-02-09T08:38:35.059Z,40.42
2023-02-09T08:41:06.381Z,37.97
2023-02-09T08:43:33.121Z,43.58
2023-02-09T08:46:07.938Z,37.88
2023-02-09T08:48:36.156Z,38.72
2023-02-09T08:51:03.252Z,38.72
2023-02-09T08:53:29.774Z,37.00
2023-02-09T08:55:56.351Z,39.10
2023-02-09T08:58:25.357Z,38.58
2023-02-09T09:00:59.103Z,39.90
2023-02-09T09:03:29.672Z,35.97
2023-02-09T09:06:01.003Z,41.13
2023-02-09T09:08:28.388Z,38.15
2023-02-09T09:10:55.130Z,37.20
2023-02-09T09:13:22.107Z,36.10
2023-02-09T09:15:49.111Z,45.65
2023-02-09T09:18:16.005Z,33.00
2023-02-09T09:20:42.767Z,35.08
2023-02-09T09:23:09.322Z,35.65
2023-02-09T09:25:38.378Z,35.25
2023-02-09T09:28:04.943Z,42.58
2023-02-09T09:30:31.800Z,38.13
2023-02-09T09:33:18.218Z,38.72
2023-02-09T09:36:00.700Z,35.80
2023-02-09T09:38:27.251Z,31.83
2023-02-09T09:40:54.215Z,35.35
2023-02-09T09:43:23.517Z,36.67
2023-02-09T09:45:50.399Z,31.20
2023-02-09T09:48:24.376Z,36.35
2023-02-09T09:50:52.930Z,37.20
2023-02-09T09:53:32.991Z,39.10
2023-02-09T09:56:03.865Z,35.17
2023-02-09T09:58:31.201Z,34.08
2023-02-09T10:00:58.360Z,29.70
2023-02-09T10:03:25.121Z,35.92
2023-02-09T10:05:54.285Z,33.97
2023-02-09T10:08:33.505Z,32.70
2023-02-09T10:11:11.255Z,30.80
2023-02-09T10:13:44.886Z,31.90
2023-02-09T10:16:21.656Z,33.08
2023-02-09T10:18:56.783Z,28.67
2023-02-09T10:21:25.926Z,27.80
2023-02-09T10:24:01.408Z,34.08
2023-02-09T10:26:31.652Z,34.17
2023-02-09T10:29:00.763Z,35.57
2023-02-09T10:31:43.048Z,33.80
2023-02-09T10:34:18.288Z,30.75
2023-02-09T10:37:15.761Z,29.42
2023-02-09T10:39:42.442Z,39.47
2023-02-09T10:42:17.917Z,31.05
2023-02-09T10:44:49.217Z,38.97
2023-02-09T10:47:18.673Z,30.17
2023-02-09T10:49:59.765Z,28.88
2023-02-09T10:52:26.821Z,29.70
2023-02-09T10:54:59.970Z,27.92
2023-02-09T10:57:30.984Z,26.27
2023-02-09T11:00:19.136Z,29.63
2023-02-09T11:03:01.385Z,27.48
2023-02-09T11:05:33.858Z,31.08
2023-02-09T11:08:18.472Z,24.98
2023-02-09T11:11:08.470Z,30.95
2023-02-09T11:13:35.458Z,31.70
2023-02-09T11:16:16.175Z,28.70
2023-02-09T11:18:44.601Z,24.17
2023-02-09T11:21:36.240Z,22.88
2023-02-09T11:24:05.413Z,26.60
2023-02-09T11:27:12.990Z,27.58
2023-02-09T11:29:50.128Z,32.60
2023-02-09T11:32:31.572Z,35.42
2023-02-09T11:37:30.078Z,27.23
2023-02-09T11:40:15.564Z,26.50
2023-02-09T11:42:46.436Z,27.70
2023-02-09T11:45:33.608Z,30.10
2023-02-09T11:48:11.023Z,28.77
2023-02-09T11:50:56.227Z,30.35
2023-02-09T11:53:31.502Z,31.38
2023-02-09T11:56:00.234Z,32.97
2023-02-09T11:58:51.375Z,28.55
2023-02-09T12:01:27.156Z,24.38
2023-02-09T12:03:55.563Z,29.38
2023-02-09T12:06:23.108Z,30.13
2023-02-09T12:08:58.314Z,31.90
2023-02-09T12:11:45.289Z,29.58
2023-02-09T12:14:49.051Z,25.08
2023-02-09T12:17:21.515Z,27.80
2023-02-09T12:19:56.635Z,30.40
2023-02-09T12:22:45.518Z,26.90
2023-02-09T12:25:11.943Z,22.38
2023-02-09T12:27:43.056Z,29.42
2023-02-09T12:30:41.856Z,31.23
2023-02-09T12:33:23.547Z,27.50
2023-02-09T12:36:04.999Z,23.83
2023-02-09T12:39:04.666Z,27.17
2023-02-09T12:41:51.539Z,23.33
2023-02-09T12:44:19.260Z,25.10
2023-02-09T12:46:46.541Z,20.23
2023-02-09T12:49:15.958Z,20.92
2023-02-09T12:51:53.203Z,27.98
2023-02-09T12:54:50.442Z,21.52
2023-02-09T12:57:17.211Z,20.48
2023-02-09T12:59:49.537Z,30.15
2023-02-09T13:02:50.959Z,27.48
2023-02-09T13:05:17.389Z,25.52
2023-02-09T13:08:18.641Z,26.30
2023-02-09T13:10:50.857Z,33.42
2023-02-09T13:13:21.741Z,29.05
2023-02-09T13:16:05.119Z,25.35
2023-02-09T13:18:56.351Z,24.25
2023-02-09T13:21:59.384Z,28.27
2023-02-09T13:24:39.017Z,27.63
2023-02-09T13:27:17.882Z,23.45
2023-02-09T13:29:53.327Z,29.13
2023-02-09T13:32:37.893Z,26.00
2023-02-09T13:35:41.679Z,21.35
2023-02-09T13:38:16.653Z,30.75
2023-02-09T13:40:48.812Z,25.08
2023-02-09T13:43:19.001Z,26.60
2023-02-09T13:45:50.707Z,25.38
2023-02-09T13:48:23.971Z,24.55
2023-02-09T13:50:51.921Z,23.70
2023-02-09T13:53:20.241Z,22.52
2023-02-09T13:55:48.457Z,21.35
2023-02-09T13:58:21.428Z,20.17
2023-02-09T14:00:51.328Z,25.88
2023-02-09T14:03:23.989Z,24.85
2023-02-09T14:06:29.866Z,22.55
2023-02-09T14:08:57.885Z,17.08
2023-02-09T14:11:46.509Z,29.80
2023-02-09T14:14:19.444Z,22.02
2023-02-09T14:16:53.389Z,19.40
2023-02-09T14:19:30.778Z,24.25
2023-02-09T14:21:57.507Z,21.13
2023-02-09T14:24:25.853Z,16.65
2023-02-09T14:26:59.305Z,21.50
2023-02-09T14:29:28.391Z,20.70
2023-02-09T14:31:56.374Z,27.58
2023-02-09T14:34:37.122Z,15.55
2023-02-09T14:37:03.540Z,21.27
2023-02-09T14:39:31.409Z,17.23
2023-02-09T14:42:08.504Z,18.88
2023-02-09T14:44:45.106Z,22.10
2023-02-09T14:47:45.342Z,18.30
2023-02-09T14:50:14.534Z,19.20
2023-02-09T14:52:46.717Z,20.65
2023-02-09T14:55:28.141Z,26.27
2023-02-09T14:57:54.663Z,23.35
2023-02-09T15:00:24.034Z,25.70
2023-02-09T15:02:51.756Z,26.58
2023-02-09T15:05:19.793Z,23.77
2023-02-09T15:07:49.497Z,20.90
2023-02-09T15:10:21.279Z,23.30
2023-02-09T15:12:47.831Z,25.77
2023-02-09T15:15:16.626Z,19.27
2023-02-09T15:17:43.230Z,22.85
2023-02-09T15:20:13.577Z,23.88
2023-02-09T15:22:40.132Z,23.20
2023-02-09T15:25:06.891Z,21.50
2023-02-09T15:27:35.406Z,23.23
2023-02-09T15:30:04.519Z,18.08
2023-02-09T15:32:31.492Z,23.45
2023-02-09T15:34:57.999Z,24.58
2023-02-09T15:37:27.261Z,30.20
2023-02-09T15:39:56.558Z,23.15
2023-02-09T15:42:41.510Z,26.20
2023-02-09T15:45:39.787Z,24.23
2023-02-09T15:48:06.681Z,23.85
2023-02-09T15:50:34.837Z,20.67
2023-02-09T15:53:05.540Z,23.48
2023-02-09T15:55:32.447Z,27.48
2023-02-09T15:57:59.138Z,26.95
2023-02-09T16:00:28.553Z,23.83
2023-02-09T16:02:56.391Z,28.70
2023-02-09T16:05:26.436Z,30.45
2023-02-09T16:07:53.858Z,23.73
2023-02-09T16:10:27.615Z,26.90
2023-02-09T16:12:56.593Z,24.45
2023-02-09T16:15:25.338Z,33.80
2023-02-09T16:17:52.181Z,31.55
2023-02-09T16:20:20.078Z,30.65
2023-02-09T16:22:48.615Z,33.00
2023-02-09T16:25:20.824Z,29.60
2023-02-09T16:27:47.601Z,30.45
2023-02-09T16:30:28.474Z,30.67
2023-02-09T16:32:55.509Z,27.35
2023-02-09T16:35:24.014Z,34.47
2023-02-09T16:37:51.797Z,31.77
2023-02-09T16:40:32.676Z,38.50
2023-02-09T16:43:01.175Z,34.13
2023-02-09T16:45:29.538Z,31.35
2023-02-09T16:47:59.130Z,37.13
2023-02-09T16:50:33.185Z,29.70
2023-02-09T16:53:04.413Z,32.08
2023-02-09T16:55:33.577Z,35.00
2023-02-09T16:58:02.391Z,33.30
2023-02-09T17:00:36.980Z,32.92
2023-02-09T17:03:21.050Z,34.60
2023-02-09T17:05:52.538Z,31.80
2023-02-09T17:08:28.241Z,39.92
2023-02-09T17:10:56.211Z,34.13
2023-02-09T17:13:23.009Z,33.80
2023-02-09T17:15:54.713Z,33.20
2023-02-09T17:18:27.466Z,35.05
2023-02-09T17:21:02.552Z,31.70
2023-02-09T17:23:30.491Z,36.70
2023-02-09T17:25:57.547Z,34.97
2023-02-09T17:28:25.607Z,35.53
2023-02-09T17:30:55.983Z,38.03
2023-02-09T17:33:25.103Z,30.95
2023-02-09T17:36:23.786Z,40.33
2023-02-09T17:38:40.997Z,38.08
2023-02-09T17:41:20.112Z,34.50
2023-02-09T17:43:47.247Z,39.63
2023-02-09T17:46:16.276Z,29.92
2023-02-09T17:48:44.993Z,30.45
2023-02-09T17:51:21.183Z,32.83
2023-02-09T17:53:49.055Z,31.90
2023-02-09T17:56:16.809Z,30.50
2023-02-09T17:58:44.551Z,34.17
2023-02-09T18:01:22.887Z,33.88
2023-02-09T18:03:50.749Z,38.75
2023-02-09T18:06:21.340Z,35.17
2023-02-09T18:08:50.238Z,39.47
2023-02-09T18:11:16.816Z,37.42
2023-02-09T18:13:43.518Z,42.67
2023-02-09T18:16:10.204Z,38.78
2023-02-09T18:18:36.783Z,35.97
2023-02-09T18:21:03.362Z,38.00
2023-02-09T18:23:29.957Z,40.15
2023-02-09T18:25:56.458Z,41.47
2023-02-09T18:28:22.962Z,42.38
2023-02-09T18:30:49.640Z,42.20
2023-02-09T18:33:16.511Z,42.67
2023-02-09T18:35:47.171Z,39.60
2023-02-09T18:38:14.874Z,40.00
2023-02-09T18:40:41.551Z,38.00
2023-02-09T18:43:08.833Z,43.38
2023-02-09T18:45:35.675Z,45.72
2023-02-09T18:48:02.269Z,38.03
2023-02-09T18:50:32.457Z,36.22
2023-02-09T18:53:01.878Z,40.40
2023-02-09T18:55:30.690Z,42.13
2023-02-09T18:57:59.180Z,43.72
2023-02-09T19:00:26.346Z,39.83
2023-02-09T19:02:57.373Z,37.20
2023-02-09T19:07:53.107Z,45.97
2023-02-09T19:10:21.143Z,42.35
2023-02-09T19:12:48.322Z,41.55
2023-02-09T19:15:17.078Z,39.38
2023-02-09T19:17:44.230Z,49.72
2023-02-09T19:20:17.608Z,42.08
2023-02-09T19:22:44.759Z,39.85
2023-02-09T19:25:11.290Z,38.45
2023-02-09T19:27:37.841Z,42.53
2023-02-09T19:30:04.678Z,43.40
2023-02-09T19:32:31.260Z,44.60
2023-02-09T19:34:57.823Z,44.35
2023-02-09T19:37:24.714Z,44.97
2023-02-09T19:40:00.427Z,45.13
2023-02-09T19:42:27.009Z,45.13
2023-02-09T19:44:54.179Z,47.22
2023-02-09T19:47:25.917Z,49.53
2023-02-09T19:49:57.737Z,48.95
2023-02-09T19:52:25.833Z,48.97
2023-02-09T19:54:52.579Z,53.20
2023-02-09T19:57:20.072Z,47.22
2023-02-09T19:59:46.579Z,49.97
2023-02-09T20:02:14.200Z,58.00
2023-02-09T20:04:42.622Z,55.03
2023-02-09T20:07:10.053Z,48.47
2023-02-09T20:09:36.656Z,51.47
2023-02-09T20:12:03.689Z,54.97
2023-02-09T20:14:31.708Z,48.30
2023-02-09T20:17:00.067Z,53.95
2023-02-09T20:19:26.815Z,52.30
2023-02-09T20:21:53.389Z,56.30
2023-02-09T20:24:20.121Z,51.25
2023-02-09T20:26:46.745Z,50.53
2023-02-09T20:29:16.252Z,53.25
2023-02-09T20:31:42.914Z,55.28
2023-02-09T20:34:13.431Z,50.28
2023-02-09T20:36:44.163Z,51.10
2023-02-09T20:39:15.816Z,53.30
2023-02-09T20:42:05.338Z,52.13
2023-02-09T20:44:52.230Z,52.53
2023-02-09T20:47:19.197Z,57.03
2023-02-09T20:49:46.046Z,51.42
2023-02-09T20:52:12.884Z,53.15
2023-02-09T20:54:39.575Z,59.35
2023-02-09T20:57:06.282Z,53.13
2023-02-09T20:59:33.992Z,52.08
2023-02-09T21:02:00.903Z,53.75
2023-02-09T21:04:29.879Z,56.17
2023-02-09T21:06:56.977Z,55.15
2023-02-09T21:09:26.331Z,49.58
2023-02-09T21:11:53.687Z,55.55
2023-02-09T21:14:27.821Z,53.30
2023-02-09T21:16:59.431Z,51.40
2023-02-09T21:19:25.966Z,55.80
2023-02-09T21:21:52.927Z,60.63
2023-02-09T21:24:19.628Z,54.28
2023-02-09T21:26:46.306Z,60.58
2023-02-09T21:29:14.117Z,62.58
2023-02-09T21:31:40.852Z,62.33
2023-02-09T21:34:07.617Z,59.28
2023-02-09T21:36:34.235Z,62.35
2023-02-09T21:39:00.926Z,58.00
2023-02-09T21:41:46.591Z,65.63
2023-02-09T21:44:13.889Z,67.03
2023-02-09T21:46:41.026Z,63.97
2023-02-09T21:49:07.634Z,63.58
2023-02-09T21:51:34.880Z,60.70
2023-02-09T21:54:01.358Z,68.47
2023-02-09T21:56:27.919Z,65.07
2023-02-09T21:58:54.438Z,62.42
2023-02-09T22:01:20.999Z,61.58
2023-02-09T22:03:49.657Z,70.00
2023-02-09T22:06:16.307Z,64.57
2023-02-09T22:08:42.833Z,71.55
2023-02-09T22:11:10.250Z,67.65
2023-02-09T22:13:37.845Z,64.47
2023-02-09T22:16:08.581Z,74.13
2023-02-09T22:18:36.040Z,65.38
2023-02-09T22:21:11.465Z,71.15
2023-02-09T22:23:38.102Z,64.07
2023-02-09T22:26:06.124Z,76.43
2023-02-09T22:28:36.204Z,64.30
2023-02-09T22:31:08.026Z,80.10
2023-02-09T22:33:35.392Z,70.32
2023-02-09T22:36:11.485Z,71.63
2023-02-09T22:38:38.043Z,73.15
2023-02-09T22:41:21.127Z,71.03
2023-02-09T22:43:55.209Z,66.53
2023-02-09T22:46:25.473Z,72.53
2023-02-09T22:49:05.490Z,83.28
2023-02-09T22:51:33.224Z,69.90
2023-02-09T22:54:00.533Z,83.95
2023-02-09T22:56:27.925Z,68.10
2023-02-09T22:58:55.324Z,74.10
2023-02-09T23:01:22.329Z,72.53
2023-02-09T23:03:49.427Z,75.43
2023-02-09T23:06:20.946Z,71.10
2023-02-09T23:08:47.575Z,70.38
2023-02-09T23:11:16.591Z,73.22
2023-02-09T23:13:43.510Z,70.05
2023-02-09T23:16:21.061Z,68.38
2023-02-09T23:18:52.444Z,75.72
2023-02-09T23:21:21.859Z,77.20
2023-02-09T23:23:50.917Z,72.55
2023-02-09T23:26:18.482Z,77.63
2023-02-09T23:28:45.642Z,68.88
2023-02-09T23:31:14.630Z,76.65
2023-02-09T23:33:41.627Z,70.55
2023-02-09T23:36:10.689Z,75.72
2023-02-09T23:38:37.711Z,75.75
2023-02-09T23:41:13.490Z,77.82
2023-02-09T23:43:40.137Z,87.53
2023-02-09T23:46:10.520Z,75.45
2023-02-09T23:48:37.318Z,67.28
2023-02-09T23:51:06.208Z,75.65
2023-02-09T23:53:33.542Z,82.53
2023-02-09T23:56:06.192Z,86.70
2023-02-09T23:58:37.263Z,85.22
